Time;durP1;ratioP1;P1;durP2;ratioP2;P2;SDS_P1;SDS_P2;PMS_P1;PMS_P2;Temp;Humidity;BMP_temperature;BMP_pressure;BME280_temperature;BME280_humidity;BME280_pressure;Samples;Min_cycle;Max_cycle;Signal;HPM_P1;HPM_P2
2022/04/17 00:00:51;;;;;;;7.32;5.50;;;;;;;5.98;51.12;102932.53;5051516;28;20041;-69
2022/04/17 00:03:21;;;;;;;8.77;5.28;;;;;;;5.97;51.18;102930.75;5042582;28;20041;-69
2022/04/17 00:05:50;;;;;;;8.95;6.25;;;;;;;5.99;51.15;102929.06;5053131;28;20042;-69
2022/04/17 00:08:17;;;;;;;11.02;5.90;;;;;;;5.98;50.96;102935.16;5053462;28;20049;-69
2022/04/17 00:10:46;;;;;;;9.18;5.47;;;;;;;5.96;51.40;102934.22;5049235;28;20042;-69
2022/04/17 00:13:14;;;;;;;8.80;5.78;;;;;;;5.92;51.11;102933.28;5054110;28;20069;-69
2022/04/17 00:15:43;;;;;;;11.52;6.65;;;;;;;5.85;51.01;102932.25;5052979;28;21006;-69
2022/04/17 00:18:11;;;;;;;9.88;6.32;;;;;;;5.80;51.24;102931.28;5052178;28;20069;-69
2022/04/17 00:20:39;;;;;;;10.27;6.75;;;;;;;5.73;51.53;102937.22;5051831;28;20041;-68
2022/04/17 00:23:07;;;;;;;12.52;6.65;;;;;;;5.69;51.78;102941.50;5051796;28;20073;-68
2022/04/17 00:25:34;;;;;;;10.65;6.93;;;;;;;5.66;52.07;102930.06;5052190;28;20046;-68
2022/04/17 00:28:02;;;;;;;11.30;6.65;;;;;;;5.65;51.87;102929.19;5051656;28;20040;-68
2022/04/17 00:30:29;;;;;;;9.13;6.85;;;;;;;5.64;51.65;102934.38;5052357;28;20042;-69
2022/04/17 00:32:56;;;;;;;11.95;7.20;;;;;;;5.62;51.83;102930.84;5051919;28;20049;-68
2022/04/17 00:35:23;;;;;;;11.25;7.18;;;;;;;5.63;51.56;102932.63;5051364;28;20128;-66
2022/04/17 00:37:50;;;;;;;12.93;6.80;;;;;;;5.62;51.65;102936.09;5051161;28;20041;-66
2022/04/17 00:40:17;;;;;;;11.77;6.88;;;;;;;5.53;51.48;102937.63;5052433;28;20049;-65
2022/04/17 00:42:46;;;;;;;10.40;6.68;;;;;;;5.45;51.67;102941.78;5050706;28;20041;-65
2022/04/17 00:45:16;;;;;;;12.63;7.30;;;;;;;5.39;51.78;102934.66;5051941;28;20048;-65
2022/04/17 00:47:43;;;;;;;13.07;7.18;;;;;;;5.36;51.94;102936.31;5050997;28;20049;-62
2022/04/17 00:50:12;;;;;;;12.45;7.30;;;;;;;5.32;52.06;102935.34;5051294;28;20037;-63
2022/04/17 00:52:39;;;;;;;13.00;7.45;;;;;;;5.27;52.10;102922.16;5050572;28;20112;-63
2022/04/17 00:55:08;;;;;;;12.45;7.40;;;;;;;5.23;52.24;102927.28;5052034;28;20045;-63
2022/04/17 00:57:36;;;;;;;12.57;7.57;;;;;;;5.17;52.19;102925.38;5050760;28;20133;-62
2022/04/17 01:00:08;;;;;;;15.20;7.63;;;;;;;5.09;52.25;102929.53;5052239;28;20033;-63
2022/04/17 01:02:35;;;;;;;12.10;7.65;;;;;;;5.03;52.45;102929.41;5049127;28;20403;-64
2022/04/17 01:05:04;;;;;;;11.73;6.75;;;;;;;5.01;52.57;102928.47;5049807;28;20038;-65
2022/04/17 01:07:31;;;;;;;13.30;7.75;;;;;;;4.96;52.56;102930.97;5052049;28;20037;-64
2022/04/17 01:10:00;;;;;;;14.57;7.65;;;;;;;4.92;52.75;102922.16;5050617;28;20089;-65
2022/04/17 01:12:28;;;;;;;11.27;7.53;;;;;;;4.91;52.74;102929.94;5049584;28;20426;-63
2022/04/17 01:14:55;;;;;;;10.23;6.75;;;;;;;4.88;52.78;102924.66;5048511;28;20080;-64
2022/04/17 01:17:22;;;;;;;15.18;7.93;;;;;;;4.90;52.80;102928.16;5047197;28;20109;-63
2022/04/17 01:19:50;;;;;;;13.23;7.68;;;;;;;4.91;52.77;102925.59;5052515;28;20120;-63
2022/04/17 01:22:18;;;;;;;12.10;7.90;;;;;;;4.94;52.72;102933.50;5050908;28;20047;-62
2022/04/17 01:27:32;;;;;;;13.57;8.05;;;;;;;4.89;52.59;102921.16;5049809;28;20252;-65
2022/04/17 01:29:59;;;;;;;12.43;7.50;;;;;;;4.79;52.44;102926.16;5052686;28;20096;-64
2022/04/17 01:32:27;;;;;;;14.38;8.02;;;;;;;4.70;52.94;102925.03;5045270;28;20060;-64
2022/04/17 01:34:54;;;;;;;12.18;7.50;;;;;;;4.66;53.14;102921.44;5047020;28;20041;-63
2022/04/17 01:37:22;;;;;;;12.25;7.70;;;;;;;4.64;53.45;102917.91;5047362;28;20041;-63
2022/04/17 01:39:50;;;;;;;11.43;7.50;;;;;;;4.60;53.48;102908.19;5042054;28;20072;-63
2022/04/17 01:42:19;;;;;;;11.68;7.38;;;;;;;4.56;53.88;102920.28;5046802;28;20050;-70
2022/04/17 01:44:46;;;;;;;12.32;7.45;;;;;;;4.53;53.93;102912.34;5049998;28;20037;-68
2022/04/17 01:47:13;;;;;;;13.05;7.60;;;;;;;4.49;53.90;102911.38;5050729;28;20041;-68
2022/04/17 01:49:41;;;;;;;11.60;8.15;;;;;;;4.46;54.10;102915.66;5051888;28;20053;-69
2022/04/17 01:52:08;;;;;;;11.90;7.50;;;;;;;4.46;54.24;102915.66;5048038;28;20053;-68
2022/04/17 01:54:37;;;;;;;12.30;7.80;;;;;;;4.46;54.30;102919.16;5051891;28;20053;-69
2022/04/17 01:57:05;;;;;;;11.73;7.45;;;;;;;4.43;54.16;102920.78;5049415;28;20084;-68
2022/04/17 01:59:32;;;;;;;12.18;7.75;;;;;;;4.37;54.50;102911.06;5052239;28;20045;-67
2022/04/17 02:02:00;;;;;;;12.35;8.00;;;;;;;4.37;54.30;102910.16;5048041;28;20561;-68
2022/04/17 02:04:32;;;;;;;15.00;7.43;;;;;;;4.36;54.28;102919.75;5050888;28;20458;-68
2022/04/17 02:06:59;;;;;;;12.88;7.63;;;;;;;4.33;54.16;102910.06;5048287;28;20046;-65
2022/04/17 02:09:27;;;;;;;14.20;8.23;;;;;;;4.31;54.09;102913.47;5050516;28;20053;-65
2022/04/17 02:11:56;;;;;;;12.20;8.30;;;;;;;4.29;54.13;102913.44;5049761;28;20049;-66
2022/04/17 02:14:23;;;;;;;13.38;8.20;;;;;;;4.30;54.31;102907.38;5048345;28;20037;-66
2022/04/17 02:16:50;;;;;;;14.90;8.10;;;;;;;4.31;54.35;102910.88;5050283;28;20041;-65
2022/04/17 02:19:19;;;;;;;15.68;8.82;;;;;;;4.30;54.29;102914.31;5049399;28;20045;-65
2022/04/17 02:21:46;;;;;;;13.10;7.97;;;;;;;4.29;54.34;102913.44;5050331;28;20052;-66
2022/04/17 02:24:13;;;;;;;13.90;8.07;;;;;;;4.23;54.67;102904.53;5049985;28;20037;-67
2022/04/17 02:26:40;;;;;;;11.85;8.20;;;;;;;4.16;54.91;102908.69;5050437;28;20562;-68
2022/04/17 02:29:07;;;;;;;13.55;8.15;;;;;;;4.09;54.95;102910.22;5048765;28;20494;-66
2022/04/17 02:31:34;;;;;;;13.05;8.40;;;;;;;4.07;54.78;102908.44;5050138;28;20059;-66
2022/04/17 02:34:01;;;;;;;15.95;9.20;;;;;;;4.03;54.82;102915.28;5050126;28;20045;-66
2022/04/17 02:36:29;;;;;;;15.05;8.43;;;;;;;4.01;55.01;102916.97;5048927;28;20047;-66
2022/04/17 02:38:56;;;;;;;12.70;8.20;;;;;;;3.97;55.27;102909.91;5050517;28;20511;-67
2022/04/17 02:41:23;;;;;;;14.70;8.48;;;;;;;3.89;55.23;102910.53;5048759;28;20034;-66
2022/04/17 02:43:50;;;;;;;13.52;7.78;;;;;;;3.81;55.31;102911.16;5049780;28;20044;-66
2022/04/17 02:47:42;;;;;;;13.98;8.20;;;;;;;3.73;55.35;102905.69;5050427;28;20038;-66
2022/04/17 02:49:05;;;;;;;12.30;8.13;;;;;;;3.63;55.83;102901.88;5049732;28;20053;-67
2022/04/17 02:51:33;;;;;;;13.10;8.57;;;;;;;3.60;56.12;102906.13;5050039;28;20620;-66
2022/04/17 02:54:00;;;;;;;12.45;7.93;;;;;;;3.52;56.38;102896.34;5048899;28;20053;-68
2022/04/17 02:56:27;;;;;;;13.25;8.25;;;;;;;3.50;56.19;102902.34;5049669;28;20045;-69
2022/04/17 02:58:54;;;;;;;12.20;7.70;;;;;;;3.50;56.38;102904.97;5049579;28;20037;-69
2022/04/17 03:06:56;;;;;;;13.45;8.55;;;;;;;3.37;57.19;102901.03;5046906;28;20115;-68
2022/04/17 03:09:23;;;;;;;13.43;8.57;;;;;;;-147.05;100.00;58721.66;5047505;28;20042;-68
2022/04/17 03:11:50;;;;;;;14.43;8.57;;;;;;;-147.05;100.00;58721.66;5041339;28;20054;-67
2022/04/17 03:14:18;;;;;;;16.50;8.80;;;;;;;-147.05;100.00;58721.66;5046966;28;20434;-68
2022/04/17 03:16:45;;;;;;;13.55;9.20;;;;;;;-147.05;100.00;58721.66;5044862;28;20052;-68
2022/04/17 03:19:13;;;;;;;14.60;8.80;;;;;;;-147.05;100.00;58721.66;5051411;28;20506;-67
2022/04/17 03:21:40;;;;;;;13.50;9.27;;;;;;;-147.05;100.00;58721.66;5048913;28;20046;-67
2022/04/17 03:24:08;;;;;;;13.98;9.00;;;;;;;-147.05;100.00;58721.66;5049106;28;20112;-68
2022/04/17 03:26:36;;;;;;;15.00;8.50;;;;;;;2.93;100.00;58721.66;5047648;28;20038;-68
2022/04/17 03:29:03;;;;;;;14.93;8.73;;;;;;;-147.05;100.00;58721.66;5050411;28;20052;-69
2022/04/17 03:31:31;;;;;;;13.73;8.60;;;;;;;-147.05;100.00;58721.66;5043860;28;20448;-69
2022/04/17 03:33:59;;;;;;;13.60;8.43;;;;;;;-147.05;100.00;58721.66;5036847;28;20112;-70
2022/04/17 03:36:28;;;;;;;12.95;8.45;;;;;;;-147.05;100.00;58721.66;5043170;28;20056;-67
2022/04/17 03:38:55;;;;;;;14.18;7.93;;;;;;;2.80;100.00;58721.66;5044418;28;20041;-67
2022/04/17 03:41:22;;;;;;;14.73;9.18;;;;;;;-147.05;100.00;58721.66;5049045;28;20627;-68
2022/04/17 03:43:50;;;;;;;13.90;8.30;;;;;;;-147.05;100.00;58721.66;5047826;28;20046;-66
2022/04/17 03:46:17;;;;;;;14.05;8.25;;;;;;;-147.05;100.00;58721.66;5042566;28;20042;-67
2022/04/17 03:48:44;;;;;;;12.45;8.25;;;;;;;-147.05;100.00;58721.66;5047982;28;20876;-68
2022/04/17 03:51:17;;;;;;;14.57;8.75;;;;;;;-147.05;100.00;58721.66;5050118;28;20567;-68
2022/04/17 03:53:44;;;;;;;14.10;9.13;;;;;;;-147.05;100.00;58721.66;5045420;28;20823;-68
2022/04/17 03:56:11;;;;;;;14.23;8.60;;;;;;;-147.05;100.00;58721.66;5048752;28;20045;-70
2022/04/17 03:58:38;;;;;;;14.82;8.55;;;;;;;-147.05;100.00;58721.66;5043950;28;20049;-68
2022/04/17 04:01:05;;;;;;;14.52;8.73;;;;;;;-147.05;100.00;58721.66;5050403;28;20095;-69
2022/04/17 04:03:34;;;;;;;16.23;8.57;;;;;;;-147.05;100.00;58721.66;5049853;28;20046;-69
2022/04/17 04:06:01;;;;;;;14.05;8.73;;;;;;;-147.05;100.00;58721.66;5047016;28;20077;-68
2022/04/17 04:08:28;;;;;;;12.88;7.88;;;;;;;-147.05;100.00;58721.66;5042560;28;20045;-68
2022/04/17 04:10:55;;;;;;;14.18;8.32;;;;;;;-147.05;100.00;58721.66;5047926;28;20065;-69
2022/04/17 04:13:22;;;;;;;13.00;8.10;;;;;;;-147.05;100.00;58721.66;5044954;28;20041;-68
2022/04/17 04:15:50;;;;;;;14.38;7.93;;;;;;;-147.05;100.00;58721.66;5039418;28;20139;-69
2022/04/17 04:18:17;;;;;;;12.93;7.88;;;;;;;-147.05;100.00;58721.66;5054503;28;20529;-69
2022/04/17 04:20:44;;;;;;;10.82;7.60;;;;;;;-147.05;100.00;58721.66;5052070;28;20495;-69
2022/04/17 04:23:11;;;;;;;12.45;7.97;;;;;;;-147.05;100.00;58721.66;5050167;28;20044;-69
2022/04/17 04:25:44;;;;;;;13.32;7.82;;;;;;;-147.05;100.00;58721.66;5049361;28;20972;-68
2022/04/17 04:30:56;;;;;;;11.98;7.72;;;;;;;-147.05;100.00;58721.66;5042913;28;20068;-68
2022/04/17 04:33:23;;;;;;;13.85;7.97;;;;;;;-147.05;100.00;58721.66;5040883;28;20045;-67
2022/04/17 04:35:51;;;;;;;11.65;7.78;;;;;;;-147.05;100.00;58721.66;5041887;28;20427;-68
2022/04/17 04:38:18;;;;;;;11.75;7.30;;;;;;;-147.05;100.00;58721.66;5041387;28;20063;-68
2022/04/17 04:40:45;;;;;;;13.82;7.72;;;;;;;-147.05;100.00;58721.66;5049032;28;20104;-68
2022/04/17 04:43:12;;;;;;;11.73;7.47;;;;;;;-147.05;100.00;58721.66;5046340;28;20041;-68
2022/04/17 04:51:13;;;;;;;14.75;7.90;;;;;;;-147.05;100.00;58721.66;5047274;28;20053;-66
2022/04/17 04:53:41;;;;;;;13.63;7.85;;;;;;;-147.05;100.00;58721.66;5053268;28;20100;-66
2022/04/17 04:56:08;;;;;;;11.43;7.72;;;;;;;-147.05;100.00;58721.66;5047750;28;20042;-66
2022/04/17 04:58:36;;;;;;;14.07;7.78;;;;;;;-147.05;100.00;58721.66;5053915;28;20068;-67
2022/04/17 05:01:03;;;;;;;13.60;8.00;;;;;;;-147.05;100.00;58721.66;5048788;28;20534;-68
2022/04/17 05:03:31;;;;;;;12.02;7.80;;;;;;;-147.05;100.00;58721.66;5045421;28;20125;-66
2022/04/17 05:06:00;;;;;;;12.13;7.40;;;;;;;5.89;54.22;102824.16;5044142;28;20037;-69
2022/04/17 05:08:27;;;;;;;13.27;7.32;;;;;;;6.53;52.97;102823.69;5047610;28;20149;-69
2022/04/17 05:10:57;;;;;;;10.48;6.90;;;;;;;7.33;50.96;102825.84;5049806;28;20534;-67
2022/04/17 05:13:24;;;;;;;9.95;7.40;;;;;;;7.94;49.67;102817.06;5050999;28;20425;-67
2022/04/17 05:15:52;;;;;;;11.05;7.47;;;;;;;8.63;47.63;102810.84;5050479;28;20080;-69
2022/04/17 05:18:19;;;;;;;11.43;7.40;;;;;;;9.27;46.61;102809.56;5050214;28;20088;-68
2022/04/17 05:20:46;;;;;;;10.82;7.13;;;;;;;9.85;45.05;102813.41;5044262;28;20049;-67
2022/04/17 05:23:22;;;;;;;8.77;6.32;;;;;;;10.38;44.32;102812.69;5052322;28;20042;-68
2022/04/17 05:25:56;;;;;;;10.98;6.68;;;;;;;10.93;42.62;102808.34;5043690;28;20079;-68
2022/04/17 05:28:24;;;;;;;9.63;6.83;;;;;;;11.39;42.09;102809.19;5043020;28;20073;-69
2022/04/17 05:30:51;;;;;;;9.38;6.43;;;;;;;11.77;40.63;102803.78;5049337;28;20045;-68
2022/04/17 05:33:22;;;;;;;9.57;6.38;;;;;;;12.01;39.88;102816.91;5044755;28;20049;-68
2022/04/17 05:35:51;;;;;;;9.65;6.47;;;;;;;11.76;40.20;102801.16;5046486;28;20046;-69
2022/04/17 05:38:22;;;;;;;10.60;6.68;;;;;;;10.73;41.74;102808.38;5047266;28;20493;-68
2022/04/17 05:40:53;;;;;;;8.25;6.55;;;;;;;9.77;43.45;102818.63;5041765;28;20049;-69
2022/04/17 05:43:22;;;;;;;8.57;6.60;;;;;;;9.02;44.80;102814.66;5043348;28;20946;-67
2022/04/17 05:45:49;;;;;;;8.80;6.32;;;;;;;8.48;45.81;102822.06;5046293;28;20042;-67
2022/04/17 05:48:24;;;;;;;10.63;6.82;;;;;;;8.03;46.72;102817.16;5042773;28;20045;-66
2022/04/17 05:50:54;;;;;;;8.75;6.15;;;;;;;7.67;47.38;102818.47;5021327;28;20041;-67
2022/04/17 05:53:23;;;;;;;10.25;6.10;;;;;;;7.43;48.19;102829.50;5028040;28;20038;-68
2022/04/17 05:55:52;;;;;;;9.25;6.00;;;;;;;7.28;49.08;102831.03;5026003;28;20099;-67
2022/04/17 05:58:19;;;;;;;8.25;5.82;;;;;;;7.26;50.13;102835.38;5024193;28;20042;-68
2022/04/17 06:00:46;;;;;;;9.43;6.43;;;;;;;7.25;50.16;102832.75;5026023;28;20479;-69
2022/04/17 06:03:15;;;;;;;9.95;5.75;;;;;;;7.20;49.53;102823.91;5021122;28;20481;-66
2022/04/17 06:05:43;;;;;;;9.90;6.15;;;;;;;7.15;49.66;102837.84;5039583;28;20061;-67
2022/04/17 06:08:10;;;;;;;8.55;5.50;;;;;;;7.10;49.96;102833.38;5024018;28;20046;-66
2022/04/17 06:10:38;;;;;;;14.07;6.32;;;;;;;7.14;49.94;102838.69;5022451;28;20046;-66
2022/04/17 06:13:05;;;;;;;9.70;5.40;;;;;;;7.18;49.80;102838.72;5027570;28;20937;-66
2022/04/17 06:15:34;;;;;;;11.05;6.07;;;;;;;7.22;49.72;102845.81;5013104;28;20038;-66
2022/04/17 06:18:01;;;;;;;7.00;5.28;;;;;;;7.22;49.82;102843.19;5027456;28;20090;-67
2022/04/17 06:20:28;;;;;;;7.88;5.35;;;;;;;7.26;49.71;102837.13;5021354;28;20060;-66
2022/04/17 06:22:55;;;;;;;7.30;5.15;;;;;;;7.40;50.15;102842.59;5020668;28;20058;-67
2022/04/17 06:25:22;;;;;;;8.90;5.45;;;;;;;7.56;49.98;102838.44;5023796;28;20595;-68
2022/04/17 06:27:50;;;;;;;7.80;5.45;;;;;;;7.71;49.70;102841.28;5025231;28;20040;-68
2022/04/17 06:30:20;;;;;;;6.68;4.97;;;;;;;7.81;49.05;102836.13;5026170;28;20038;-66
2022/04/17 06:32:50;;;;;;;6.25;4.72;;;;;;;7.92;49.49;102834.53;5028892;28;20551;-67
2022/04/17 06:35:17;;;;;;;6.93;4.70;;;;;;;8.02;48.88;102827.66;5025634;28;20527;-67
2022/04/17 06:37:51;;;;;;;6.25;4.25;;;;;;;8.12;49.06;102833.91;5030389;28;20053;-68
2022/04/17 06:40:34;;;;;;;8.88;4.80;;;;;;;8.26;49.02;102827.06;5029925;28;20052;-67
2022/04/17 06:43:05;;;;;;;8.52;5.30;;;;;;;8.44;49.12;102826.41;5023009;28;20046;-67
2022/04/17 06:45:39;;;;;;;6.15;4.40;;;;;;;8.58;49.05;102823.03;5018368;28;20039;-68
2022/04/17 06:48:25;;;;;;;7.45;4.63;;;;;;;8.74;48.58;102814.44;5028593;28;20093;-67
2022/04/17 06:50:54;;;;;;;6.75;3.90;;;;;;;8.88;47.67;102813.66;5028799;28;20496;-68
2022/04/17 06:53:22;;;;;;;5.88;3.88;;;;;;;8.99;47.98;102814.63;5032499;28;20042;-67
2022/04/17 06:55:49;;;;;;;5.28;3.85;;;;;;;9.12;47.49;102810.34;5030728;28;20050;-68
2022/04/17 06:58:19;;;;;;;5.22;3.00;;;;;;;9.23;47.25;102813.94;5024933;28;20038;-68
2022/04/17 07:00:48;;;;;;;6.05;3.42;;;;;;;9.35;46.49;102820.16;5022744;28;20042;-68
2022/04/17 07:03:16;;;;;;;4.70;3.03;;;;;;;9.44;46.50;102813.19;5019699;28;20046;-67
2022/04/17 07:05:44;;;;;;;5.75;3.13;;;;;;;9.55;46.09;102815.88;5027004;28;20070;-68
2022/04/17 07:08:12;;;;;;;4.80;2.88;;;;;;;9.70;46.16;102811.59;5024490;28;20050;-67
2022/04/17 07:10:40;;;;;;;3.83;2.70;;;;;;;9.81;45.66;102811.63;5024990;28;20055;-67
2022/04/17 07:13:11;;;;;;;7.25;3.05;;;;;;;9.90;45.71;102817.81;5026989;28;20049;-69
2022/04/17 07:15:38;;;;;;;3.88;2.50;;;;;;;9.99;45.38;102822.22;5025509;28;20042;-69
2022/04/17 07:18:05;;;;;;;4.55;2.55;;;;;;;10.07;45.51;102812.59;5018663;28;20769;-67
2022/04/17 07:20:34;;;;;;;3.38;2.70;;;;;;;10.17;45.27;102813.50;5025567;28;20038;-69
2022/04/17 07:23:01;;;;;;;3.80;2.45;;;;;;;10.28;44.74;102816.16;5015844;28;20169;-69
2022/04/17 07:25:29;;;;;;;3.13;2.20;;;;;;;10.36;45.08;102811.81;5019082;28;20801;-69
2022/04/17 07:27:56;;;;;;;3.42;2.40;;;;;;;10.47;44.90;102809.22;5020791;28;20170;-69
2022/04/17 07:30:30;;;;;;;3.60;2.47;;;;;;;10.62;44.28;102807.47;5017178;28;20041;-69
2022/04/17 07:33:01;;;;;;;;;;;;;;;10.73;43.73;102813.66;5022400;28;20152;-69
2022/04/17 07:35:30;;;;;;;3.42;2.42;;;;;;;10.82;43.35;102812.75;5023498;28;20383;-69
2022/04/17 07:38:03;;;;;;;4.03;2.40;;;;;;;10.91;43.68;102810.13;5023024;28;20046;-69
2022/04/17 07:40:33;;;;;;;3.20;1.97;;;;;;;11.02;43.33;102794.28;5019834;28;20053;-70
2022/04/17 07:43:04;;;;;;;3.38;2.13;;;;;;;11.14;42.91;102801.31;5024760;28;20045;-69
2022/04/17 07:45:33;;;;;;;3.85;2.30;;;;;;;11.24;42.58;102797.78;5023493;28;20037;-69
2022/04/17 07:48:00;;;;;;;4.40;1.88;;;;;;;11.35;41.88;102797.72;5025390;28;20076;-69
2022/04/17 07:50:31;;;;;;;4.93;2.22;;;;;;;11.44;42.13;102794.19;5018882;28;20451;-69
2022/04/17 07:53:00;;;;;;;3.05;2.20;;;;;;;11.55;42.23;102780.97;5024864;28;20108;-69
2022/04/17 07:55:27;;;;;;;4.35;1.95;;;;;;;11.66;41.85;102789.72;5024378;28;20519;-68
2022/04/17 07:58:12;;;;;;;3.40;1.75;;;;;;;11.76;41.68;102788.78;5017308;28;20840;-69
2022/04/17 08:00:51;;;;;;;2.22;1.77;;;;;;;11.89;41.54;102789.66;5017570;28;20038;-69
2022/04/17 08:03:21;;;;;;;4.72;1.90;;;;;;;12.01;41.52;102786.09;5027580;28;20076;-69
2022/04/17 08:05:50;;;;;;;3.88;2.05;;;;;;;12.09;40.80;102781.63;5027290;28;20037;-69
2022/04/17 08:08:19;;;;;;;2.85;1.63;;;;;;;12.17;40.42;102778.94;5027245;28;20096;-68
2022/04/17 08:10:47;;;;;;;4.80;2.10;;;;;;;12.25;40.07;102779.78;5028252;28;20052;-70
2022/04/17 08:13:16;;;;;;;3.83;1.90;;;;;;;12.33;40.44;102774.44;5028555;28;20514;-70
2022/04/17 08:15:44;;;;;;;3.40;1.70;;;;;;;12.42;40.20;102774.38;5020363;28;20038;-68
2022/04/17 08:18:12;;;;;;;3.88;1.88;;;;;;;12.53;39.08;102774.28;5025466;28;20076;-68
2022/04/17 08:20:43;;;;;;;4.82;2.10;;;;;;;12.60;39.09;102777.75;5024832;28;20117;-69
2022/04/17 08:23:10;;;;;;;4.07;1.98;;;;;;;12.68;38.90;102777.69;5023629;28;20038;-69
2022/04/17 08:25:38;;;;;;;3.30;1.98;;;;;;;12.79;39.26;102775.84;5024446;28;20057;-70
2022/04/17 08:28:06;;;;;;;3.22;1.80;;;;;;;12.94;38.89;102766.88;5022274;28;20402;-71
2022/04/17 08:30:34;;;;;;;6.40;1.80;;;;;;;13.05;39.55;102765.03;5025136;28;20041;-68
2022/04/17 08:33:06;;;;;;;7.22;1.85;;;;;;;13.17;38.95;102765.78;5022749;28;20049;-70
2022/04/17 08:35:34;;;;;;;5.82;2.15;;;;;;;13.25;39.10;102761.28;5021177;28;20125;-70
2022/04/17 08:38:04;;;;;;;4.43;1.98;;;;;;;13.34;38.49;102754.97;5022539;28;20116;-72
2022/04/17 08:40:32;;;;;;;4.20;1.95;;;;;;;13.40;37.98;102749.66;5019516;28;20038;-74
2022/04/17 08:43:00;;;;;;;4.55;1.88;;;;;;;13.47;38.33;102746.03;5021241;28;20522;-69
2022/04/17 08:45:28;;;;;;;3.40;1.90;;;;;;;13.60;38.61;102749.41;5021242;28;20412;-70
2022/04/17 08:47:56;;;;;;;4.05;2.00;;;;;;;13.71;37.15;102745.75;5014749;28;20042;-70
2022/04/17 08:50:24;;;;;;;2.50;1.77;;;;;;;13.76;36.76;102747.44;5014064;28;20511;-69
2022/04/17 08:52:53;;;;;;;3.65;1.98;;;;;;;13.72;36.55;102739.53;5022268;28;20120;-70
2022/04/17 08:55:21;;;;;;;4.70;2.05;;;;;;;13.75;38.02;102744.81;5023760;28;20033;-69
2022/04/17 08:57:48;;;;;;;4.95;1.77;;;;;;;13.90;37.77;102738.44;5023217;28;20449;-70
2022/04/17 09:00:17;;;;;;;3.63;2.20;;;;;;;14.06;36.97;102741.72;5022696;28;20034;-69
2022/04/17 09:02:47;;;;;;;2.95;1.80;;;;;;;14.18;36.98;102730.94;5018854;28;20196;-70
2022/04/17 09:05:19;;;;;;;2.63;1.63;;;;;;;14.33;36.44;102737.78;5025224;28;20042;-69
2022/04/17 09:07:50;;;;;;;3.65;1.67;;;;;;;14.48;36.96;102735.78;5018140;28;20127;-69
2022/04/17 09:10:29;;;;;;;3.28;1.60;;;;;;;14.63;36.65;102735.53;5022228;28;20046;-70
2022/04/17 09:13:02;;;;;;;2.72;1.60;;;;;;;14.76;36.00;102741.53;5023311;28;20034;-69
2022/04/17 09:15:37;;;;;;;3.63;1.95;;;;;;;14.87;35.92;102734.25;5014592;28;20057;-69
2022/04/17 09:18:08;;;;;;;2.08;1.42;;;;;;;14.96;34.91;102734.97;5023001;28;20061;-69
2022/04/17 09:20:46;;;;;;;2.85;1.50;;;;;;;15.05;35.55;102737.44;5028042;28;20057;-70
2022/04/17 09:23:14;;;;;;;2.85;1.70;;;;;;;15.12;34.91;102728.44;5017677;28;20062;-69
2022/04/17 09:25:45;;;;;;;2.55;1.40;;;;;;;15.20;35.00;102723.88;5026731;28;20038;-69
2022/04/17 09:28:12;;;;;;;3.75;1.50;;;;;;;15.32;35.01;102721.88;5021349;28;20070;-70
2022/04/17 09:30:46;;;;;;;3.10;1.65;;;;;;;15.42;34.74;102717.25;5027031;28;20058;-69
2022/04/17 09:33:14;;;;;;;7.40;1.80;;;;;;;15.50;34.36;102710.88;5018812;28;20053;-70
2022/04/17 09:35:53;;;;;;;3.33;1.65;;;;;;;15.57;33.60;102710.72;5017543;28;20041;-69
2022/04/17 09:38:28;;;;;;;2.42;1.50;;;;;;;15.56;33.37;102703.66;5021416;28;20504;-70
2022/04/17 09:41:05;;;;;;;2.13;1.50;;;;;;;15.65;34.18;102695.47;5021844;28;20184;-68
2022/04/17 09:43:34;;;;;;;5.57;1.77;;;;;;;15.78;34.06;102691.66;5024043;28;20046;-69
2022/04/17 09:46:06;;;;;;;4.78;1.80;;;;;;;15.93;33.40;102694.88;5013682;28;20065;-70
2022/04/17 09:48:40;;;;;;;3.60;1.90;;;;;;;15.97;31.93;102684.13;5018695;28;20053;-69
2022/04/17 09:51:28;;;;;;;8.25;1.73;;;;;;;16.05;31.81;102691.06;5016166;28;20037;-70
2022/04/17 09:54:01;;;;;;;2.30;1.70;;;;;;;16.13;32.97;102683.78;5019498;28;20701;-70
2022/04/17 09:56:43;;;;;;;4.20;1.60;;;;;;;16.30;32.65;102670.06;5020201;28;20046;-69
2022/04/17 09:59:18;;;;;;;2.65;1.40;;;;;;;16.37;30.29;102665.47;5013077;28;21034;-69
2022/04/17 10:01:49;;;;;;;3.92;1.55;;;;;;;16.39;31.15;102667.16;5011432;28;20047;-70
2022/04/17 10:04:19;;;;;;;4.80;1.50;;;;;;;16.48;30.79;102665.16;5025028;28;20049;-70
2022/04/17 10:06:52;;;;;;;2.45;1.50;;;;;;;16.56;31.87;102658.72;5022134;28;20066;-70
2022/04/17 10:09:21;;;;;;;2.60;1.65;;;;;;;16.67;31.92;102657.56;5021296;28;20053;-71
2022/04/17 10:11:51;;;;;;;2.58;1.50;;;;;;;16.73;30.80;102654.72;5024482;28;20607;-69
2022/04/17 10:14:19;;;;;;;2.78;1.70;;;;;;;16.80;31.13;102652.78;5022031;28;20953;-69
2022/04/17 10:16:48;;;;;;;5.63;1.80;;;;;;;16.88;31.11;102646.31;5018155;28;20042;-70
2022/04/17 10:19:24;;;;;;;10.65;2.10;;;;;;;17.02;31.52;102645.97;5020568;28;20082;-70
2022/04/17 10:21:52;;;;;;;4.38;1.73;;;;;;;17.18;30.76;102634.84;5024305;28;20088;-69
2022/04/17 10:24:24;;;;;;;4.28;1.60;;;;;;;17.31;30.33;102636.22;5021349;28;20046;-69
2022/04/17 10:26:54;;;;;;;2.30;1.83;;;;;;;17.34;28.13;102633.47;5025035;28;20089;-70
2022/04/17 10:29:37;;;;;;;2.67;2.10;;;;;;;17.28;28.99;102638.13;5021428;28;20046;-69
2022/04/17 10:32:58;;;;;;;3.47;1.98;;;;;;;17.29;30.44;102629.19;5022129;28;20086;-69
2022/04/17 10:36:04;;;;;;;4.03;2.13;;;;;;;17.37;30.14;102620.03;5020140;28;20498;-67
2022/04/17 10:38:55;;;;;;;;;;;;;;;17.49;29.89;102626.78;5018017;28;20046;-68
2022/04/17 10:41:29;;;;;;;4.40;1.88;;;;;;;17.57;29.00;102625.69;5025636;28;19973;-69
2022/04/17 10:43:59;;;;;;;;;;;;;;;17.56;28.32;102619.44;5015434;28;20096;-69
2022/04/17 10:46:26;;;;;;;3.08;1.92;;;;;;;17.44;27.10;102610.06;5024433;28;19925;-70
2022/04/17 10:49:01;;;;;;;3.10;1.90;;;;;;;17.33;27.82;102613.06;5024645;28;20097;-68
2022/04/17 10:51:31;;;;;;;5.82;2.17;;;;;;;17.33;28.35;102610.41;5019408;28;20423;-68
2022/04/17 10:54:06;;;;;;;4.03;2.10;;;;;;;17.44;28.16;102604.72;5017942;28;20034;-67
2022/04/17 10:56:41;;;;;;;5.07;2.10;;;;;;;17.56;28.23;102597.25;5026368;28;20062;-67
2022/04/17 10:59:30;;;;;;;3.78;2.25;;;;;;;17.75;29.17;102589.53;5020816;28;20515;-70
2022/04/17 11:02:05;;;;;;;3.53;2.15;;;;;;;17.89;29.15;102589.09;5026168;28;20554;-70
2022/04/17 11:04:55;;;;;;;2.22;2.03;;;;;;;17.99;29.02;102583.41;5020360;28;20084;-70
2022/04/17 11:07:30;;;;;;;3.38;2.33;;;;;;;18.13;27.73;102584.75;5017292;28;20072;-68
2022/04/17 11:10:20;;;;;;;2.83;2.30;;;;;;;18.04;28.16;102577.91;5025578;28;20048;-69
2022/04/17 11:12:53;;;;;;;3.63;2.10;;;;;;;18.05;27.16;102571.66;5018837;28;20052;-69
2022/04/17 11:15:28;;;;;;;2.88;2.13;;;;;;;17.96;26.97;102572.81;5023689;28;20100;-69
2022/04/17 11:18:00;;;;;;;3.72;2.30;;;;;;;17.94;27.41;102572.00;5022509;28;20720;-68
2022/04/17 11:20:30;;;;;;;2.78;2.20;;;;;;;17.84;26.86;102566.09;5022379;28;20034;-69
2022/04/17 11:22:57;;;;;;;3.00;2.00;;;;;;;17.74;27.34;102564.66;5021287;28;20034;-67
2022/04/17 11:25:28;;;;;;;3.50;2.10;;;;;;;17.79;27.17;102560.06;5021628;28;20045;-68
2022/04/17 11:27:57;;;;;;;2.78;2.03;;;;;;;17.90;27.58;102553.47;5022932;28;20041;-69
2022/04/17 11:30:54;;;;;;;2.97;2.00;;;;;;;18.05;27.36;102552.13;5015223;28;20059;-69
2022/04/17 11:33:21;;;;;;;3.65;2.00;;;;;;;18.13;26.73;102542.91;5019275;28;20061;-69
2022/04/17 11:35:49;;;;;;;4.13;2.30;;;;;;;18.11;26.51;102539.41;5023332;28;20541;-70
2022/04/17 11:38:16;;;;;;;3.35;2.10;;;;;;;18.15;27.08;102534.84;5029547;28;20042;-70
2022/04/17 11:40:47;;;;;;;4.72;2.10;;;;;;;18.30;27.67;102534.28;5017559;28;20042;-70
2022/04/17 11:43:17;;;;;;;3.25;1.95;;;;;;;18.37;25.92;102528.72;5024725;28;20042;-70
2022/04/17 11:45:46;;;;;;;3.50;2.00;;;;;;;18.50;26.61;102515.81;5017955;28;20042;-70
2022/04/17 11:48:17;;;;;;;4.60;2.00;;;;;;;18.67;24.99;102517.84;5024060;28;20034;-70
2022/04/17 11:50:52;;;;;;;2.90;2.10;;;;;;;18.61;24.80;102516.28;5019592;28;20045;-69
2022/04/17 11:53:19;;;;;;;4.40;2.15;;;;;;;18.63;26.40;102515.28;5026431;28;20089;-69